Time;durP1;ratioP1;P1;durP2;ratioP2;P2;SDS_P1;SDS_P2;PMS_P1;PMS_P2;Temp;Humidity;BMP_temperature;BMP_pressure;BME280_temperature;BME280_humidity;BME280_pressure;Samples;Min_cycle;Max_cycle;Signal;HPM_P1;HPM_P2
2022/01/19 00:00:37;;;;;;;21.23;18.83;;;;;;;;;;4974513;28;20115;-76
2022/01/19 00:03:03;;;;;;;22.73;19.30;;;;;;;;;;5000348;28;20043;-75
2022/01/19 00:05:29;;;;;;;20.80;18.67;;;;;;;;;;4988745;28;20042;-76
2022/01/19 00:07:55;;;;;;;23.77;19.88;;;;;;;;;;4988861;28;20034;-76
2022/01/19 00:10:27;;;;;;;24.50;20.00;;;;;;;;;;4994650;28;20633;-76
2022/01/19 00:12:57;;;;;;;25.35;19.45;;;;;;;;;;4979961;28;20042;-76
2022/01/19 00:15:24;;;;;;;22.45;19.92;;;;;;;;;;4987938;28;20046;-76
2022/01/19 00:17:54;;;;;;;23.45;19.20;;;;;;;;;;4987508;28;20031;-76
2022/01/19 00:20:21;;;;;;;25.10;19.35;;;;;;;;;;4979214;28;20413;-76
2022/01/19 00:22:47;;;;;;;20.85;18.20;;;;;;;;;;4996039;28;20030;-76
2022/01/19 00:25:13;;;;;;;21.55;19.27;;;;;;;;;;4971001;28;20096;-75
2022/01/19 00:27:39;;;;;;;25.13;20.20;;;;;;;;;;4974901;28;20363;-76
2022/01/19 00:30:05;;;;;;;19.98;18.05;;;;;;;;;;4961445;28;20494;-76
2022/01/19 00:32:32;;;;;;;21.33;19.02;;;;;;;;;;4958888;28;20074;-76
2022/01/19 00:34:58;;;;;;;21.98;19.63;;;;;;;;;;4983574;28;20401;-76
2022/01/19 00:37:24;;;;;;;22.48;19.65;;;;;;;;;;4987330;28;20034;-76
2022/01/19 00:39:50;;;;;;;24.50;20.65;;;;;;;;;;4971810;28;20031;-75
2022/01/19 00:42:16;;;;;;;26.98;21.65;;;;;;;;;;4966289;28;20678;-76
2022/01/19 00:44:41;;;;;;;21.73;19.38;;;;;;;;;;4984780;28;20041;-75
2022/01/19 00:47:07;;;;;;;22.90;19.85;;;;;;;;;;4975485;28;20034;-76
2022/01/19 00:49:32;;;;;;;23.77;20.35;;;;;;;;;;4958706;28;20096;-75
2022/01/19 00:51:58;;;;;;;25.70;20.95;;;;;;;;;;4997243;28;20100;-76
2022/01/19 00:54:24;;;;;;;28.58;20.65;;;;;;;;;;4990027;28;20084;-76
2022/01/19 00:56:49;;;;;;;28.63;20.67;;;;;;;;;;4974796;28;20040;-76
2022/01/19 00:59:16;;;;;;;28.27;19.88;;;;;;;;;;4974647;28;20097;-76
2022/01/19 01:01:41;;;;;;;23.13;20.45;;;;;;;;;;4970333;28;20513;-76
2022/01/19 01:04:07;;;;;;;24.65;20.05;;;;;;;;;;4994960;28;20042;-76
2022/01/19 01:06:33;;;;;;;25.63;20.38;;;;;;;;;;4990597;28;20117;-75
2022/01/19 01:08:58;;;;;;;22.55;19.90;;;;;;;;;;4977204;28;20034;-75
2022/01/19 01:11:29;;;;;;;33.28;21.63;;;;;;;;;;4991995;28;20472;-76
2022/01/19 01:16:33;;;;;;;28.52;21.52;;;;;;;;;;4991422;28;20195;-76
2022/01/19 01:18:59;;;;;;;29.63;22.48;;;;;;;;;;4953245;28;20036;-76
2022/01/19 01:21:26;;;;;;;32.78;25.88;;;;;;;;;;4984686;28;20022;-75
2022/01/19 01:23:52;;;;;;;30.58;24.10;;;;;;;;;;4976377;28;20344;-75
2022/01/19 01:26:17;;;;;;;31.67;25.17;;;;;;;;;;4979419;28;20030;-76
2022/01/19 01:28:44;;;;;;;31.40;25.70;;;;;;;;;;4977746;28;20038;-75
2022/01/19 01:31:09;;;;;;;26.63;21.67;;;;;;;;;;4974078;28;20049;-75
2022/01/19 01:33:38;;;;;;;30.30;22.42;;;;;;;;;;4974859;28;20051;-75
2022/01/19 01:36:05;;;;;;;30.55;22.15;;;;;;;;;;4968453;28;20042;-76
2022/01/19 01:38:31;;;;;;;26.17;20.58;;;;;;;;;;4958179;28;20048;-76
2022/01/19 01:40:57;;;;;;;25.80;21.35;;;;;;;;;;4967051;28;20072;-76
2022/01/19 01:43:23;;;;;;;23.75;21.13;;;;;;;;;;4993282;28;20505;-76
2022/01/19 01:45:53;;;;;;;32.75;23.25;;;;;;;;;;5002620;28;20042;-75
2022/01/19 01:48:22;;;;;;;31.95;21.50;;;;;;;;;;4973645;28;20061;-76
2022/01/19 01:53:48;;;;;;;25.00;20.85;;;;;;;;;;4980309;28;20045;-76
2022/01/19 01:56:16;;;;;;;34.67;22.30;;;;;;;;;;4974616;28;20050;-75
2022/01/19 01:58:46;;;;;;;30.50;22.95;;;;;;;;;;4973938;28;20120;-76
2022/01/19 02:01:30;;;;;;;30.05;22.52;;;;;;;;;;4987875;28;20076;-75
2022/01/19 02:04:00;;;;;;;26.63;21.63;;;;;;;;;;4981766;28;20050;-75
2022/01/19 02:06:33;;;;;;;25.48;22.08;;;;;;;;;;4973639;28;20100;-75
2022/01/19 02:09:22;;;;;;;26.13;21.98;;;;;;;;;;4989244;28;20034;-76
2022/01/19 02:23:01;;;;;;;28.60;21.98;;;;;;;;;;4982298;28;20030;-76
2022/01/19 02:25:30;;;;;;;;;;;;;;;;;;4984933;28;20038;-76
2022/01/19 02:36:50;;;;;;;25.27;22.00;;;;;;;;;;4977547;28;20134;-75
2022/01/19 02:41:30;;;;;;;28.52;22.08;;;;;;;;;;4972867;28;20304;-76
2022/01/19 02:43:57;;;;;;;25.30;21.88;;;;;;;;;;4956465;28;20717;-75
2022/01/19 02:49:17;;;;;;;25.58;20.75;;;;;;;;;;4977383;28;20065;-75
2022/01/19 02:51:48;;;;;;;22.05;19.55;;;;;;;;;;4968213;28;20033;-76
2022/01/19 02:54:16;;;;;;;29.70;21.08;;;;;;;;;;4993336;28;20112;-76
2022/01/19 02:56:46;;;;;;;32.03;22.83;;;;;;;;;;4971068;28;20042;-76
2022/01/19 02:59:20;;;;;;;;;;;;;;;;;;4961175;28;20093;-75
2022/01/19 03:09:46;;;;;;;25.63;21.67;;;;;;;;;;4972084;28;20042;-75
2022/01/19 03:12:14;;;;;;;31.70;22.77;;;;;;;;;;4959044;28;20091;-76
2022/01/19 03:14:39;;;;;;;30.98;20.88;;;;;;;;;;4999079;28;20045;-76
2022/01/19 03:17:06;;;;;;;27.08;22.38;;;;;;;;;;4967540;28;20042;-76
2022/01/19 03:19:33;;;;;;;25.15;21.08;;;;;;;;;;4971983;28;20098;-76
2022/01/19 03:21:59;;;;;;;28.40;23.33;;;;;;;;;;4983637;28;20421;-75
2022/01/19 03:24:26;;;;;;;34.47;22.48;;;;;;;;;;4988068;28;20107;-76
2022/01/19 03:26:51;;;;;;;35.75;23.85;;;;;;;;;;4981960;28;20035;-76
2022/01/19 03:29:21;;;;;;;32.40;22.88;;;;;;;;;;4937203;28;20080;-75
2022/01/19 03:31:47;;;;;;;33.33;23.30;;;;;;;;;;4978152;28;20513;-75
2022/01/19 03:34:12;;;;;;;31.55;23.70;;;;;;;;;;4985035;28;20569;-76
2022/01/19 03:36:39;;;;;;;30.85;23.55;;;;;;;;;;4971289;28;20038;-76
2022/01/19 03:39:06;;;;;;;29.83;23.63;;;;;;;;;;4952542;28;20043;-75
2022/01/19 03:41:32;;;;;;;29.92;23.38;;;;;;;;;;4974799;28;20088;-76
2022/01/19 03:43:58;;;;;;;28.77;21.48;;;;;;;;;;4985057;28;20045;-76
2022/01/19 03:46:32;;;;;;;34.50;23.52;;;;;;;;;;4975800;28;20542;-76
2022/01/19 03:49:08;;;;;;;27.88;23.05;;;;;;;;;;4982382;28;20036;-75
2022/01/19 03:51:34;;;;;;;32.60;23.98;;;;;;;;;;4981535;28;20038;-75
2022/01/19 03:54:00;;;;;;;32.95;23.70;;;;;;;;;;4981773;28;20449;-76
2022/01/19 03:56:26;;;;;;;32.05;22.80;;;;;;;;;;4961703;28;20497;-75
2022/01/19 03:58:52;;;;;;;29.65;23.17;;;;;;;;;;4981476;28;20103;-75
2022/01/19 04:01:18;;;;;;;29.05;20.98;;;;;;;;;;4959766;28;20550;-76
2022/01/19 04:06:19;;;;;;;31.83;23.00;;;;;;;;;;4962986;28;20382;-75
2022/01/19 04:08:45;;;;;;;28.08;22.42;;;;;;;;;;4978963;28;20086;-76
2022/01/19 04:11:12;;;;;;;25.17;21.80;;;;;;;;;;4975446;28;20464;-75
2022/01/19 04:16:23;;;;;;;30.33;22.77;;;;;;;;;;4983238;28;20041;-76
2022/01/19 04:18:53;;;;;;;29.95;23.52;;;;;;;;;;4959567;28;20133;-76
2022/01/19 04:21:19;;;;;;;30.05;22.27;;;;;;;;;;4971165;28;20049;-76
2022/01/19 04:23:45;;;;;;;27.13;22.42;;;;;;;;;;4965163;28;20624;-76
2022/01/19 04:26:10;;;;;;;25.52;20.58;;;;;;;;;;4984007;28;20433;-75
2022/01/19 04:28:40;;;;;;;25.98;20.60;;;;;;;;;;4975302;28;20077;-76
2022/01/19 04:31:06;;;;;;;31.65;22.30;;;;;;;;;;4993750;28;20058;-76
2022/01/19 04:33:32;;;;;;;33.58;22.02;;;;;;;;;;4987743;28;20034;-76
2022/01/19 04:36:19;;;;;;;26.80;21.05;;;;;;;;;;4978902;28;20038;-76
2022/01/19 04:39:18;;;;;;;32.00;22.50;;;;;;;;;;4974927;28;20034;-75
2022/01/19 04:47:17;;;;;;;25.17;19.67;;;;;;;;;;4974807;28;20042;-75
2022/01/19 05:06:06;;;;;;;27.52;20.17;;;;;;;;;;4957953;28;20099;-75
2022/01/19 05:13:54;;;;;;;34.40;23.52;;;;;;;;;;4968295;28;20069;-75
2022/01/19 05:16:25;;;;;;;27.65;20.92;;;;;;;;;;4983312;28;20034;-75
2022/01/19 05:18:51;;;;;;;28.48;20.85;;;;;;;;;;4984603;28;20089;-75
2022/01/19 05:21:17;;;;;;;26.33;19.70;;;;;;;;;;4988175;28;20026;-75
2022/01/19 05:23:55;;;;;;;27.20;19.42;;;;;;;;;;4980026;28;20042;-76
2022/01/19 05:26:22;;;;;;;31.67;21.35;;;;;;;;;;5007595;28;20120;-76
2022/01/19 05:28:49;;;;;;;22.10;19.55;;;;;;;;;;4979411;28;20038;-75
2022/01/19 05:31:15;;;;;;;28.85;21.80;;;;;;;;;;4990265;28;20046;-75
2022/01/19 05:33:41;;;;;;;27.00;21.15;;;;;;;;;;4988027;28;20034;-75
2022/01/19 05:36:08;;;;;;;34.00;21.80;;;;;;;;;;4981059;28;20524;-75
2022/01/19 05:39:00;;;;;;;26.80;21.42;;;;;;;;;;4976074;28;20094;-76
2022/01/19 05:41:59;;;;;;;31.33;21.65;;;;;;;;;;4973315;28;20129;-76
2022/01/19 05:44:24;;;;;;;31.65;21.65;;;;;;;;;;4963303;28;20544;-75
2022/01/19 05:46:50;;;;;;;27.58;20.73;;;;;;;;;;4988374;28;20033;-76
2022/01/19 05:49:16;;;;;;;35.22;22.42;;;;;;;;;;4975914;28;20049;-75
2022/01/19 05:51:42;;;;;;;28.73;19.77;;;;;;;;;;4977644;28;20879;-75
2022/01/19 05:54:07;;;;;;;31.13;22.35;;;;;;;;;;5005281;28;20034;-75
2022/01/19 05:56:34;;;;;;;34.17;23.20;;;;;;;;;;4964325;28;20060;-75
2022/01/19 05:59:14;;;;;;;23.63;19.65;;;;;;;;;;4981136;28;20053;-75
2022/01/19 06:01:40;;;;;;;30.38;22.25;;;;;;;;;;4974897;28;20116;-75
2022/01/19 06:04:06;;;;;;;32.53;21.73;;;;;;;;;;4994145;28;20042;-76
2022/01/19 06:07:01;;;;;;;30.33;21.77;;;;;;;;;;4983863;28;20049;-75
2022/01/19 06:09:48;;;;;;;22.10;19.98;;;;;;;;;;4981337;28;20049;-75
2022/01/19 06:12:15;;;;;;;35.97;24.55;;;;;;;;;;4975589;28;20475;-76
2022/01/19 06:14:43;;;;;;;32.00;23.52;;;;;;;;;;4973165;28;20561;-75
2022/01/19 06:17:11;;;;;;;32.55;23.05;;;;;;;;;;4972541;28;20034;-75
2022/01/19 06:19:38;;;;;;;33.97;23.17;;;;;;;;;;4973648;28;20088;-75
2022/01/19 06:22:06;;;;;;;37.03;22.75;;;;;;;;;;4979854;28;20109;-75
2022/01/19 06:24:32;;;;;;;23.02;19.33;;;;;;;;;;4962039;28;20458;-76
2022/01/19 06:26:58;;;;;;;26.17;21.95;;;;;;;;;;4972712;28;20042;-75
2022/01/19 06:29:23;;;;;;;33.05;23.10;;;;;;;;;;4995884;28;20036;-75
2022/01/19 06:31:50;;;;;;;34.55;23.33;;;;;;;;;;4981644;28;20060;-76
2022/01/19 06:34:16;;;;;;;33.42;23.63;;;;;;;;;;4969731;28;20042;-76
2022/01/19 06:37:11;;;;;;;30.52;22.55;;;;;;;;;;4973719;28;20061;-75
2022/01/19 06:40:00;;;;;;;33.80;23.10;;;;;;;;;;4975965;28;20048;-75
2022/01/19 06:42:26;;;;;;;30.25;22.08;;;;;;;;;;4961324;28;20033;-75
2022/01/19 06:44:51;;;;;;;28.95;24.58;;;;;;;;;;4993390;28;20044;-76
2022/01/19 06:47:17;;;;;;;29.40;23.45;;;;;;;;;;4976213;28;20413;-76
2022/01/19 06:49:43;;;;;;;31.60;22.63;;;;;;;;;;4970362;28;20493;-76
2022/01/19 06:52:10;;;;;;;41.58;25.83;;;;;;;;;;4974506;28;20045;-76
2022/01/19 06:54:36;;;;;;;33.75;24.35;;;;;;;;;;4983610;28;20041;-76
2022/01/19 06:57:02;;;;;;;34.05;24.42;;;;;;;;;;4963522;28;20490;-76
2022/01/19 06:59:33;;;;;;;29.30;24.80;;;;;;;;;;4974748;28;20101;-76
2022/01/19 07:02:21;;;;;;;33.92;24.20;;;;;;;;;;4964176;28;20044;-76
2022/01/19 07:04:50;;;;;;;34.60;24.15;;;;;;;;;;4972915;28;20034;-76
2022/01/19 07:07:30;;;;;;;29.23;23.42;;;;;;;;;;4970209;28;20045;-76
2022/01/19 07:10:02;;;;;;;31.63;25.40;;;;;;;;;;4956146;28;20037;-76
2022/01/19 07:12:30;;;;;;;31.05;23.77;;;;;;;;;;4970410;28;20042;-76
2022/01/19 07:14:55;;;;;;;33.60;23.75;;;;;;;;;;4974945;28;20030;-76
2022/01/19 07:17:21;;;;;;;32.83;23.98;;;;;;;;;;4977356;28;20144;-76
2022/01/19 07:19:48;;;;;;;31.45;24.58;;;;;;;;;;4961624;28;20034;-76
2022/01/19 07:22:17;;;;;;;25.52;22.58;;;;;;;;;;4962655;28;20040;-75
2022/01/19 07:24:44;;;;;;;45.40;27.88;;;;;;;;;;4978671;28;20113;-76
2022/01/19 07:27:10;;;;;;;32.42;23.83;;;;;;;;;;4968935;28;20034;-76
2022/01/19 07:29:35;;;;;;;29.33;22.67;;;;;;;;;;4962975;28;20425;-75
2022/01/19 07:32:01;;;;;;;28.92;23.42;;;;;;;;;;4980667;28;20088;-75
2022/01/19 07:34:29;;;;;;;42.47;29.33;;;;;;;;;;4971532;28;20038;-76
2022/01/19 07:36:56;;;;;;;59.70;38.70;;;;;;;;;;4969008;28;20039;-76
2022/01/19 07:39:23;;;;;;;37.47;27.10;;;;;;;;;;4970645;28;20473;-76
2022/01/19 07:41:50;;;;;;;55.70;35.22;;;;;;;;;;4966503;28;20108;-76
2022/01/19 07:44:35;;;;;;;40.85;28.05;;;;;;;;;;4985563;28;20406;-76
2022/01/19 07:47:20;;;;;;;64.75;34.40;;;;;;;;;;4988166;28;20041;-76
2022/01/19 07:50:05;;;;;;;46.83;29.33;;;;;;;;;;4988034;28;20026;-76
2022/01/19 07:53:06;;;;;;;42.88;26.48;;;;;;;;;;4980870;28;20048;-76
2022/01/19 07:55:49;;;;;;;36.50;26.67;;;;;;;;;;4978516;28;20034;-76
2022/01/19 07:58:43;;;;;;;34.33;23.92;;;;;;;;;;4952045;28;20080;-76
2022/01/19 08:01:16;;;;;;;42.13;24.52;;;;;;;;;;4967522;28;20057;-76
2022/01/19 08:03:50;;;;;;;32.58;23.63;;;;;;;;;;4967761;28;20105;-76
2022/01/19 08:06:25;;;;;;;31.52;22.85;;;;;;;;;;4968335;28;20046;-76
2022/01/19 08:08:53;;;;;;;32.25;24.50;;;;;;;;;;4959917;28;20438;-76
2022/01/19 08:11:18;;;;;;;38.80;25.85;;;;;;;;;;4971109;28;20045;-76
2022/01/19 08:13:48;;;;;;;26.42;22.40;;;;;;;;;;4986407;28;20038;-75
2022/01/19 08:16:14;;;;;;;23.67;20.77;;;;;;;;;;4971275;28;20129;-76
2022/01/19 08:18:39;;;;;;;27.33;22.23;;;;;;;;;;4955602;28;20129;-75
2022/01/19 08:21:05;;;;;;;25.48;22.17;;;;;;;;;;4960085;28;20049;-75
2022/01/19 08:23:41;;;;;;;25.70;20.92;;;;;;;;;;4972813;28;20066;-75
2022/01/19 08:26:07;;;;;;;23.98;21.08;;;;;;;;;;4969173;28;20077;-76
2022/01/19 08:28:33;;;;;;;28.00;22.77;;;;;;;;;;4982250;28;20065;-73
2022/01/19 08:31:12;;;;;;;22.70;20.40;;;;;;;;;;4955103;28;20041;-74
2022/01/19 08:34:12;;;;;;;22.48;20.25;;;;;;;;;;4925525;28;20142;-74
2022/01/19 08:37:00;;;;;;;22.17;19.83;;;;;;;;;;4946906;28;20522;-74
2022/01/19 08:39:38;;;;;;;23.85;21.45;;;;;;;;;;4931809;29;20071;-75
2022/01/19 08:42:04;;;;;;;22.58;20.48;;;;;;;;;;4926015;29;20046;-75
2022/01/19 08:44:30;;;;;;;22.25;20.02;;;;;;;;;;4929810;29;20127;-75
2022/01/19 08:47:10;;;;;;;27.45;21.85;;;;;;;;;;4915037;29;20481;-75
2022/01/19 08:49:56;;;;;;;22.73;20.38;;;;;;;;;;4947594;28;20055;-75
2022/01/19 08:53:01;;;;;;;22.10;19.73;;;;;;;;;;4941596;28;20546;-74
2022/01/19 08:55:35;;;;;;;23.02;20.88;;;;;;;;;;4958431;28;20035;-75
2022/01/19 08:58:01;;;;;;;22.90;20.50;;;;;;;;;;4955275;28;20054;-74
2022/01/19 09:00:27;;;;;;;22.38;20.08;;;;;;;;;;4955081;28;20031;-74
2022/01/19 09:02:53;;;;;;;22.27;20.15;;;;;;;;;;4949363;29;20506;-73
2022/01/19 09:05:19;;;;;;;21.65;19.08;;;;;;;;;;4949231;28;20050;-74
2022/01/19 09:07:45;;;;;;;22.00;19.73;;;;;;;;;;4947062;28;20642;-75
2022/01/19 09:10:11;;;;;;;22.38;20.27;;;;;;;;;;4974649;28;20105;-75
2022/01/19 09:12:37;;;;;;;22.63;19.98;;;;;;;;;;4972968;28;20030;-75
2022/01/19 09:15:05;;;;;;;22.75;20.58;;;;;;;;;;4972252;28;20535;-74
2022/01/19 09:17:32;;;;;;;22.88;20.75;;;;;;;;;;4990606;28;20057;-74
2022/01/19 09:19:58;;;;;;;24.30;21.80;;;;;;;;;;4991337;28;20042;-74
2022/01/19 09:22:24;;;;;;;23.80;20.98;;;;;;;;;;4977117;28;20044;-74
2022/01/19 09:24:49;;;;;;;22.35;20.02;;;;;;;;;;4978242;28;20034;-74
2022/01/19 09:27:18;;;;;;;23.85;21.58;;;;;;;;;;4990269;28;20038;-74
2022/01/19 09:29:45;;;;;;;22.73;20.45;;;;;;;;;;4989349;28;20588;-75
2022/01/19 09:32:12;;;;;;;22.05;19.85;;;;;;;;;;4969679;28;20042;-75
2022/01/19 09:34:48;;;;;;;22.30;20.17;;;;;;;;;;4990632;28;20116;-74
2022/01/19 09:37:14;;;;;;;22.00;19.77;;;;;;;;;;4991133;28;20493;-74
2022/01/19 09:39:40;;;;;;;23.10;20.45;;;;;;;;;;4990088;28;20054;-74
2022/01/19 09:42:06;;;;;;;22.05;20.00;;;;;;;;;;4990131;28;20076;-74
2022/01/19 09:44:32;;;;;;;21.60;19.40;;;;;;;;;;4991178;28;20141;-74
2022/01/19 09:46:59;;;;;;;24.58;21.55;;;;;;;;;;4994728;28;20573;-74
2022/01/19 09:49:25;;;;;;;22.02;19.80;;;;;;;;;;4990721;28;20037;-74
2022/01/19 09:51:54;;;;;;;25.00;22.30;;;;;;;;;;4995817;28;20117;-74
2022/01/19 09:54:25;;;;;;;23.20;21.00;;;;;;;;;;4998465;28;20034;-75
2022/01/19 09:56:52;;;;;;;23.17;20.67;;;;;;;;;;4973385;28;20042;-74
2022/01/19 09:59:20;;;;;;;23.58;21.17;;;;;;;;;;4989686;28;20117;-74
2022/01/19 10:02:11;;;;;;;22.73;20.30;;;;;;;;;;4990006;28;20065;-73
2022/01/19 10:04:44;;;;;;;22.63;20.38;;;;;;;;;;4972739;28;20030;-74
2022/01/19 10:07:16;;;;;;;22.20;20.20;;;;;;;;;;4972748;28;20401;-75
2022/01/19 10:09:48;;;;;;;22.75;20.45;;;;;;;;;;4988767;28;20034;-74
2022/01/19 10:17:55;;;;;;;22.45;20.42;;;;;;;;;;4991161;28;20034;-74
2022/01/19 10:20:22;;;;;;;21.38;19.48;;;;;;;;;;4991628;28;20051;-74
2022/01/19 10:22:48;;;;;;;20.75;18.75;;;;;;;;;;4998783;28;20033;-74
2022/01/19 10:25:14;;;;;;;20.30;18.30;;;;;;;;;;4983980;28;20030;-74
2022/01/19 10:27:45;;;;;;;20.95;18.95;;;;;;;;;;4980849;28;20033;-74
2022/01/19 10:30:20;;;;;;;21.48;19.42;;;;;;;;;;4986436;28;20659;-75
2022/01/19 10:32:55;;;;;;;19.75;17.85;;;;;;;;;;4997831;28;20044;-74
2022/01/19 10:35:26;;;;;;;19.67;17.92;;;;;;;;;;4982097;28;20045;-73
2022/01/19 10:38:12;;;;;;;21.85;18.40;;;;;;;;;;4935426;28;20047;-74
2022/01/19 10:40:40;;;;;;;20.27;18.38;;;;;;;;;;4984566;28;20033;-74
2022/01/19 10:43:24;;;;;;;18.95;17.20;;;;;;;;;;4988897;28;20030;-75
2022/01/19 10:45:49;;;;;;;19.02;17.02;;;;;;;;;;4989645;28;20056;-74
2022/01/19 10:48:33;;;;;;;18.80;17.35;;;;;;;;;;4971134;28;20502;-74
2022/01/19 10:51:29;;;;;;;20.27;18.33;;;;;;;;;;4986484;28;20034;-74
2022/01/19 10:54:08;;;;;;;20.73;18.83;;;;;;;;;;4971678;28;20221;-75
2022/01/19 10:56:35;;;;;;;20.48;18.42;;;;;;;;;;4979534;28;20664;-75
2022/01/19 10:59:07;;;;;;;21.23;19.20;;;;;;;;;;4977115;28;20512;-74
2022/01/19 11:01:38;;;;;;;21.13;18.92;;;;;;;;;;4987357;28;20037;-74
2022/01/19 11:04:18;;;;;;;21.17;19.17;;;;;;;;;;4987592;28;20113;-75
2022/01/19 11:06:45;;;;;;;20.38;18.40;;;;;;;;;;4987565;28;20065;-74
2022/01/19 11:09:14;;;;;;;19.75;17.75;;;;;;;;;;4988849;28;20096;-74
2022/01/19 11:11:44;;;;;;;19.92;18.08;;;;;;;;;;4990119;28;20031;-74
2022/01/19 11:14:16;;;;;;;19.38;17.60;;;;;;;;;;4992313;28;20034;-75
2022/01/19 11:16:43;;;;;;;18.80;17.10;;;;;;;;;;4996175;28;20142;-74
2022/01/19 11:19:12;;;;;;;20.73;18.83;;;;;;;;;;4987514;28;20038;-74
2022/01/19 11:21:51;;;;;;;21.25;19.20;;;;;;;;;;4997960;28;20037;-74
2022/01/19 11:24:30;;;;;;;19.55;17.65;;;;;;;;;;4992199;28;20038;-74
2022/01/19 11:26:56;;;;;;;19.63;17.73;;;;;;;;;;4970215;28;20041;-74
2022/01/19 11:29:23;;;;;;;20.60;18.60;;;;;;;;;;4996464;28;20530;-75
2022/01/19 11:31:51;;;;;;;20.85;18.95;;;;;;;;;;4967491;28;20038;-75
2022/01/19 11:34:39;;;;;;;19.35;17.65;;;;;;;;;;4996049;28;20096;-74
2022/01/19 11:37:05;;;;;;;19.23;17.33;;;;;;;;;;4991118;28;20029;-74
2022/01/19 11:39:31;;;;;;;18.98;17.17;;;;;;;;;;4972640;28;20046;-74
2022/01/19 11:41:59;;;;;;;18.83;17.13;;;;;;;;;;4972015;28;20603;-75
2022/01/19 11:44:30;;;;;;;19.17;17.42;;;;;;;;;;4994812;28;20096;-73
2022/01/19 11:47:16;;;;;;;18.27;16.58;;;;;;;;;;4994067;28;20121;-74
2022/01/19 11:49:57;;;;;;;20.20;18.40;;;;;;;;;;4991546;28;20045;-73
2022/01/19 11:52:35;;;;;;;18.75;17.05;;;;;;;;;;4958088;28;20054;-74
2022/01/19 11:55:19;;;;;;;19.55;17.75;;;;;;;;;;4968291;28;20409;-75
2022/01/19 11:57:47;;;;;;;17.40;15.70;;;;;;;;;;4986619;28;20133;-74
2022/01/19 12:00:30;;;;;;;19.13;17.43;;;;;;;;;;4971188;28;20088;-74
2022/01/19 12:02:59;;;;;;;17.10;15.60;;;;;;;;;;4986990;28;20054;-74
2022/01/19 12:05:46;;;;;;;17.35;15.73;;;;;;;;;;4993718;28;20402;-74
2022/01/19 12:08:21;;;;;;;18.75;16.73;;;;;;;;;;4988214;28;20038;-73
2022/01/19 12:10:49;;;;;;;18.42;16.48;;;;;;;;;;4987466;28;20077;-74
2022/01/19 12:13:42;;;;;;;18.38;16.48;;;;;;;;;;4996168;28;20092;-74
2022/01/19 12:16:47;;;;;;;18.13;16.05;;;;;;;;;;4969253;28;20548;-75
2022/01/19 12:19:06;;;;;;;16.90;15.15;;;;;;;;;;4982375;28;20034;-73
2022/01/19 12:21:31;;;;;;;18.73;16.90;;;;;;;;;;4995866;28;20030;-75
2022/01/19 12:24:27;;;;;;;17.88;16.02;;;;;;;;;;4998227;28;20030;-73
2022/01/19 12:27:04;;;;;;;19.85;17.85;;;;;;;;;;4991684;28;20045;-73
2022/01/19 12:29:33;;;;;;;17.50;15.90;;;;;;;;;;4985212;28;20461;-74
2022/01/19 12:32:00;;;;;;;18.38;16.65;;;;;;;;;;4992902;28;20045;-74
2022/01/19 12:34:26;;;;;;;19.55;17.65;;;;;;;;;;4969569;28;20047;-73
2022/01/19 12:36:58;;;;;;;18.15;16.52;;;;;;;;;;4958756;28;20042;-75
2022/01/19 12:39:26;;;;;;;19.60;17.60;;;;;;;;;;4994197;28;20061;-73
2022/01/19 12:42:05;;;;;;;20.33;18.35;;;;;;;;;;4964772;28;20065;-74
2022/01/19 12:44:40;;;;;;;20.42;18.42;;;;;;;;;;4991835;28;20030;-74
2022/01/19 12:47:28;;;;;;;22.70;18.52;;;;;;;;;;4987750;28;20402;-74
2022/01/19 12:49:58;;;;;;;20.40;18.30;;;;;;;;;;4984943;28;20574;-74
2022/01/19 12:52:26;;;;;;;19.70;17.92;;;;;;;;;;4966125;28;20059;-74
2022/01/19 12:54:54;;;;;;;20.42;18.42;;;;;;;;;;4979041;28;20471;-74
2022/01/19 12:57:20;;;;;;;22.00;18.88;;;;;;;;;;4992798;28;20033;-74
2022/01/19 12:59:50;;;;;;;21.65;19.33;;;;;;;;;;4990296;28;20217;-74
2022/01/19 13:02:17;;;;;;;;;;;;;;;;;;4973228;28;20034;-74
2022/01/19 13:04:48;;;;;;;22.27;19.50;;;;;;;;;;4991068;28;19945;-74
2022/01/19 13:07:20;;;;;;;22.13;19.77;;;;;;;;;;4977377;28;20468;-73
2022/01/19 13:15:38;;;;;;;26.38;20.48;;;;;;;;;;4976854;28;20046;-74
2022/01/19 13:18:04;;;;;;;21.90;19.40;;;;;;;;;;4988297;28;20537;-73
2022/01/19 13:20:31;;;;;;;22.35;19.88;;;;;;;;;;4995858;28;20125;-74
2022/01/19 13:22:58;;;;;;;21.40;19.05;;;;;;;;;;4976490;28;20394;-73
2022/01/19 13:25:25;;;;;;;23.45;20.80;;;;;;;;;;4990237;28;20042;-73
2022/01/19 13:27:55;;;;;;;20.80;18.73;;;;;;;;;;4957123;28;20042;-74
2022/01/19 13:30:22;;;;;;;19.90;18.00;;;;;;;;;;4995544;28;20045;-74
2022/01/19 13:32:48;;;;;;;20.55;18.27;;;;;;;;;;4989848;28;20043;-74
2022/01/19 13:35:15;;;;;;;22.55;17.88;;;;;;;;;;4990062;28;20125;-74
2022/01/19 13:37:57;;;;;;;20.33;18.27;;;;;;;;;;4996437;28;20604;-74
2022/01/19 13:40:33;;;;;;;20.92;18.83;;;;;;;;;;4978115;28;20031;-74
2022/01/19 13:43:03;;;;;;;18.73;16.98;;;;;;;;;;4978097;28;20034;-74
2022/01/19 13:48:28;;;;;;;20.00;17.73;;;;;;;;;;4995362;28;20033;-74
2022/01/19 13:50:55;;;;;;;;;;;;;;;;;;4987569;28;20041;-74
2022/01/19 13:53:54;;;;;;;18.63;16.92;;;;;;;;;;5021360;22;20299;-67
2022/01/19 13:56:29;;;;;;;19.23;17.25;;;;;;;;;;5011088;28;20220;-67
2022/01/19 13:59:02;;;;;;;21.60;18.02;;;;;;;;;;5000247;28;20500;-67
2022/01/19 14:01:39;;;;;;;22.60;18.73;;;;;;;;;;5026403;28;20029;-67
2022/01/19 14:04:11;;;;;;;20.80;18.80;;;;;;;;;;5010278;28;20046;-67
2022/01/19 14:06:38;;;;;;;19.48;17.42;;;;;;;;;;5009705;28;20547;-67
2022/01/19 14:09:16;;;;;;;20.48;18.45;;;;;;;;;;5018011;28;20072;-67
2022/01/19 14:11:57;;;;;;;20.88;18.77;;;;;;;;;;5023672;28;20037;-66
2022/01/19 14:14:26;;;;;;;22.00;19.08;;;;;;;;;;5024433;28;20062;-67
2022/01/19 14:16:55;;;;;;;21.17;18.03;;;;;;;;;;5007792;28;20202;-67
2022/01/19 14:19:28;;;;;;;19.90;17.90;;;;;;;;;;5024225;28;20037;-68
2022/01/19 14:22:11;;;;;;;29.33;18.30;;;;;;;;;;5024011;28;20343;-69
2022/01/19 14:24:40;;;;;;;23.63;17.17;;;;;;;;;;4992244;28;20052;-69
2022/01/19 14:27:11;;;;;;;20.08;17.60;;;;;;;;;;5011468;28;20083;-69
2022/01/19 14:29:56;;;;;;;20.15;17.95;;;;;;;;;;5011844;28;20501;-68
2022/01/19 14:33:03;;;;;;;19.58;16.73;;;;;;;;;;5012230;28;20036;-68
2022/01/19 14:35:45;;;;;;;19.27;17.38;;;;;;;;;;4943417;28;20179;-68
2022/01/19 14:38:11;;;;;;;21.02;17.40;;;;;;;;;;4945558;28;20044;-68
2022/01/19 14:41:08;;;;;;;20.15;17.85;;;;;;;;;;4935586;28;20087;-69
2022/01/19 14:43:41;;;;;;;18.92;17.02;;;;;;;;;;4947423;28;20161;-69
2022/01/19 14:46:11;;;;;;;19.25;17.25;;;;;;;;;;4945454;29;20113;-69
2022/01/19 14:48:38;;;;;;;;;;;;;;;;;;4935132;28;20308;-69
2022/01/19 14:51:23;;;;;;;18.42;16.60;;;;;;;;;;4944977;29;20357;-69
2022/01/19 14:54:04;;;;;;;18.42;16.73;;;;;;;;;;4943760;29;20142;-69
2022/01/19 14:56:31;;;;;;;17.15;15.55;;;;;;;;;;4946917;28;20042;-68
2022/01/19 14:59:08;;;;;;;16.23;14.55;;;;;;;;;;4926381;28;20062;-69
2022/01/19 15:01:35;;;;;;;15.73;14.23;;;;;;;;;;4948348;28;20565;-68
2022/01/19 15:04:03;;;;;;;16.60;14.98;;;;;;;;;;4944939;29;20039;-69
2022/01/19 15:06:29;;;;;;;16.63;14.93;;;;;;;;;;4991956;28;20044;-68
2022/01/19 15:08:55;;;;;;;16.77;15.38;;;;;;;;;;5027308;28;20033;-69
2022/01/19 15:11:22;;;;;;;16.70;15.07;;;;;;;;;;4998501;28;20405;-69
2022/01/19 15:13:48;;;;;;;16.45;14.77;;;;;;;;;;5011678;28;20055;-68
2022/01/19 15:16:14;;;;;;;18.30;15.77;;;;;;;;;;5028378;28;20048;-68
2022/01/19 15:18:40;;;;;;;18.92;17.23;;;;;;;;;;5025263;28;20042;-69
2022/01/19 15:21:06;;;;;;;17.08;15.57;;;;;;;;;;5008006;28;20049;-69
2022/01/19 15:23:33;;;;;;;17.40;14.98;;;;;;;;;;5025621;28;20069;-69
2022/01/19 15:26:00;;;;;;;17.25;15.48;;;;;;;;;;5027483;28;20026;-68
2022/01/19 15:28:26;;;;;;;17.42;15.50;;;;;;;;;;5027796;28;20037;-69
2022/01/19 15:30:52;;;;;;;17.92;15.93;;;;;;;;;;5009848;28;20052;-68
2022/01/19 15:33:18;;;;;;;19.52;15.77;;;;;;;;;;5023744;28;20088;-69
2022/01/19 15:35:44;;;;;;;19.25;17.23;;;;;;;;;;5026924;28;20041;-69
2022/01/19 15:38:10;;;;;;;19.27;17.40;;;;;;;;;;5027444;28;20037;-69
2022/01/19 15:40:38;;;;;;;19.77;17.77;;;;;;;;;;5006799;28;20128;-69
2022/01/19 15:43:07;;;;;;;19.50;17.60;;;;;;;;;;5026332;28;20318;-69
2022/01/19 15:45:35;;;;;;;18.80;16.92;;;;;;;;;;5017924;28;20076;-68
2022/01/19 15:48:03;;;;;;;19.75;16.42;;;;;;;;;;5008856;28;20049;-68
2022/01/19 15:50:29;;;;;;;18.25;16.40;;;;;;;;;;4999083;28;20126;-69
2022/01/19 15:52:55;;;;;;;18.63;16.83;;;;;;;;;;5008804;28;20116;-68
2022/01/19 15:55:21;;;;;;;20.77;18.17;;;;;;;;;;5026792;28;20041;-69
2022/01/19 15:57:47;;;;;;;18.92;17.02;;;;;;;;;;5027210;28;20060;-69
2022/01/19 16:00:14;;;;;;;18.85;16.85;;;;;;;;;;5005956;28;20041;-70
2022/01/19 16:02:41;;;;;;;18.35;16.42;;;;;;;;;;5026206;28;20029;-70
2022/01/19 16:05:07;;;;;;;19.83;17.25;;;;;;;;;;5026945;28;20029;-70